<?xml version="1.0" encoding="UTF-8" standalone="no" ?>
<gpx xmlns="http://www.topografix.com/GPX/1/1" xmlns:xsi="http://www.w3.org/2001/XMLSchema-instance" xsi:schemaLocation="http://www.topografix.com/GPX/1/1 http://www.topografix.com/GPX/1/1/gpx.xsd" version="1.1" creator="VisuGPX - https://www.visugpx.com">
  <metadata>
    <name>boucles beaumont</name>
    <desc><![CDATA[boucles beaumont du périgord]]></desc>
  </metadata>
  <trk>
    <name><![CDATA[BBmt37]]></name>
    <trkseg>
      <trkpt lat="44.77365" lon="0.81745">
        <ele>147</ele>
        <time>2009-01-13T14:21:58Z</time>
      </trkpt>
      <trkpt lat="44.77345" lon="0.8175">
        <ele>143</ele>
        <time>2009-01-13T14:22:10Z</time>
      </trkpt>
      <trkpt lat="44.77325" lon="0.8174">
        <ele>142</ele>
        <time>2009-01-13T14:22:15Z</time>
      </trkpt>
      <trkpt lat="44.77305" lon="0.8175">
        <ele>142</ele>
        <time>2009-01-13T14:22:23Z</time>
      </trkpt>
      <trkpt lat="44.773" lon="0.81778">
        <ele>139</ele>
        <time>2009-01-13T14:22:29Z</time>
      </trkpt>
      <trkpt lat="44.773" lon="0.8181">
        <ele>144</ele>
        <time>2009-01-13T14:22:44Z</time>
      </trkpt>
      <trkpt lat="44.773" lon="0.8184">
        <ele>148</ele>
        <time>2009-01-13T14:22:49Z</time>
      </trkpt>
      <trkpt lat="44.77303" lon="0.8187">
        <ele>151</ele>
        <time>2009-01-13T14:22:54Z</time>
      </trkpt>
      <trkpt lat="44.77305" lon="0.819">
        <ele>155</ele>
        <time>2009-01-13T14:22:59Z</time>
      </trkpt>
      <trkpt lat="44.773" lon="0.81928">
        <ele>160</ele>
        <time>2009-01-13T14:23:03Z</time>
      </trkpt>
      <trkpt lat="44.77298" lon="0.81958">
        <ele>164</ele>
        <time>2009-01-13T14:23:07Z</time>
      </trkpt>
      <trkpt lat="44.77278" lon="0.81973">
        <ele>167</ele>
        <time>2009-01-13T14:23:11Z</time>
      </trkpt>
      <trkpt lat="44.77258" lon="0.8198">
        <ele>167</ele>
        <time>2009-01-13T14:23:14Z</time>
      </trkpt>
      <trkpt lat="44.7724" lon="0.82">
        <ele>167</ele>
        <time>2009-01-13T14:23:17Z</time>
      </trkpt>
      <trkpt lat="44.77228" lon="0.8202">
        <ele>166</ele>
        <time>2009-01-13T14:23:20Z</time>
      </trkpt>
      <trkpt lat="44.77225" lon="0.82048">
        <ele>163</ele>
        <time>2009-01-13T14:23:27Z</time>
      </trkpt>
      <trkpt lat="44.77223" lon="0.82078">
        <ele>162</ele>
        <time>2009-01-13T14:23:33Z</time>
      </trkpt>
      <trkpt lat="44.7722" lon="0.82108">
        <ele>160</ele>
        <time>2009-01-13T14:23:38Z</time>
      </trkpt>
      <trkpt lat="44.77218" lon="0.82138">
        <ele>160</ele>
        <time>2009-01-13T14:23:43Z</time>
      </trkpt>
      <trkpt lat="44.77213" lon="0.8217">
        <ele>158</ele>
        <time>2009-01-13T14:23:48Z</time>
      </trkpt>
      <trkpt lat="44.7721" lon="0.822">
        <ele>159</ele>
        <time>2009-01-13T14:23:52Z</time>
      </trkpt>
      <trkpt lat="44.77205" lon="0.82225">
        <ele>159</ele>
        <time>2009-01-13T14:23:55Z</time>
      </trkpt>
      <trkpt lat="44.77198" lon="0.82253">
        <ele>162</ele>
        <time>2009-01-13T14:23:59Z</time>
      </trkpt>
      <trkpt lat="44.77193" lon="0.8228">
        <ele>165</ele>
        <time>2009-01-13T14:24:04Z</time>
      </trkpt>
      <trkpt lat="44.7719" lon="0.82308">
        <ele>165</ele>
        <time>2009-01-13T14:24:09Z</time>
      </trkpt>
      <trkpt lat="44.77175" lon="0.82325">
        <ele>165</ele>
        <time>2009-01-13T14:24:14Z</time>
      </trkpt>
      <trkpt lat="44.7716" lon="0.8234">
        <ele>166</ele>
        <time>2009-01-13T14:24:19Z</time>
      </trkpt>
      <trkpt lat="44.77148" lon="0.82363">
        <ele>165</ele>
        <time>2009-01-13T14:24:25Z</time>
      </trkpt>
      <trkpt lat="44.7714" lon="0.82388">
        <ele>162</ele>
        <time>2009-01-13T14:24:42Z</time>
      </trkpt>
      <trkpt lat="44.77145" lon="0.82413">
        <ele>159</ele>
        <time>2009-01-13T14:24:47Z</time>
      </trkpt>
      <trkpt lat="44.77148" lon="0.8244">
        <ele>157</ele>
        <time>2009-01-13T14:24:54Z</time>
      </trkpt>
      <trkpt lat="44.77138" lon="0.82468">
        <ele>151</ele>
        <time>2009-01-13T14:25:03Z</time>
      </trkpt>
      <trkpt lat="44.77128" lon="0.8249">
        <ele>147</ele>
        <time>2009-01-13T14:25:11Z</time>
      </trkpt>
      <trkpt lat="44.77118" lon="0.82507">
        <ele>145</ele>
        <time>2009-06-18T16:43:36Z</time>
      </trkpt>
      <trkpt lat="44.7705" lon="0.8262">
        <ele>106</ele>
        <time>2009-01-13T14:25:48Z</time>
      </trkpt>
    </trkseg>
  </trk>
</gpx>